createdAt,value
2018-06-22T00:02:19.246Z,2.67
2018-06-22T00:04:47.678Z,2.50
2018-06-22T00:07:16.134Z,3.17
2018-06-22T00:09:45.137Z,2.85
2018-06-22T00:12:13.576Z,5.65
2018-06-22T00:14:42.028Z,3.20
2018-06-22T00:17:10.485Z,2.98
2018-06-22T00:19:38.930Z,2.40
2018-06-22T00:22:07.386Z,3.62
2018-06-22T00:24:35.862Z,2.27
2018-06-22T00:27:04.283Z,2.70
2018-06-22T00:29:32.735Z,3.08
2018-06-22T00:32:01.194Z,3.25
2018-06-22T00:34:29.646Z,2.95
2018-06-22T00:36:58.109Z,2.30
2018-06-22T00:39:26.629Z,3.42
2018-06-22T00:41:55.044Z,3.15
2018-06-22T00:44:23.492Z,2.80
2018-06-22T00:46:51.940Z,4.40
2018-06-22T00:49:20.397Z,3.25
2018-06-22T00:51:48.869Z,2.90
2018-06-22T00:54:18.127Z,2.02
2018-06-22T00:56:47.061Z,2.45
2018-06-22T00:59:15.499Z,3.12
2018-06-22T01:01:43.970Z,2.42
2018-06-22T01:04:12.424Z,3.95
2018-06-22T01:06:40.874Z,2.85
2018-06-22T01:09:11.331Z,2.90
2018-06-22T01:11:39.874Z,2.70
2018-06-22T01:14:08.868Z,3.27
2018-06-22T01:16:37.700Z,3.12
2018-06-22T01:19:06.537Z,4.00
2018-06-22T01:21:34.973Z,4.17
2018-06-22T01:24:03.453Z,2.72
2018-06-22T01:26:31.875Z,3.60
2018-06-22T01:29:05.619Z,3.60
2018-06-22T01:31:34.070Z,3.10
2018-06-22T01:34:02.542Z,3.25
2018-06-22T01:36:31.008Z,3.60
2018-06-22T01:38:59.431Z,2.37
2018-06-22T01:41:27.859Z,2.22
2018-06-22T01:43:56.391Z,3.47
2018-06-22T01:46:24.837Z,3.35
2018-06-22T01:48:53.344Z,4.03
2018-06-22T01:51:21.815Z,3.30
2018-06-22T01:53:50.283Z,3.52
2018-06-22T01:56:18.706Z,2.40
2018-06-22T01:58:47.707Z,2.60
2018-06-22T02:01:16.140Z,2.50
2018-06-22T02:03:44.576Z,2.33
2018-06-22T02:06:13.043Z,3.35
2018-06-22T02:08:41.686Z,3.35
2018-06-22T02:11:10.141Z,4.75
2018-06-22T02:13:38.601Z,3.55
2018-06-22T02:16:07.060Z,3.02
2018-06-22T02:18:35.548Z,3.67
2018-06-22T02:21:04.048Z,2.58
2018-06-22T02:23:32.468Z,2.80
2018-06-22T02:26:00.908Z,2.40
2018-06-22T02:28:29.362Z,3.65
2018-06-22T02:30:57.805Z,3.35
2018-06-22T02:33:25.933Z,2.90
2018-06-22T02:35:54.417Z,2.80
2018-06-22T02:38:22.854Z,3.92
2018-06-22T02:40:51.299Z,3.60
2018-06-22T02:43:19.760Z,2.67
2018-06-22T02:45:48.212Z,2.72
2018-06-22T02:48:16.638Z,3.70
2018-06-22T02:50:45.105Z,2.85
2018-06-22T02:53:13.552Z,3.33
2018-06-22T02:55:41.979Z,4.00
2018-06-22T02:58:10.425Z,3.60
2018-06-22T03:00:38.892Z,3.70
2018-06-22T03:03:07.320Z,4.58
2018-06-22T03:05:35.780Z,4.35
2018-06-22T03:08:04.239Z,4.30
2018-06-22T03:10:32.677Z,3.77
2018-06-22T03:13:01.185Z,4.75
2018-06-22T03:15:29.631Z,4.03
2018-06-22T03:17:58.066Z,4.40
2018-06-22T03:20:26.512Z,5.15
2018-06-22T03:22:54.951Z,5.00
2018-06-22T03:25:23.359Z,4.20
2018-06-22T03:27:51.812Z,3.27
2018-06-22T03:30:20.266Z,3.90
2018-06-22T03:32:48.875Z,3.80
2018-06-22T03:35:17.364Z,4.97
2018-06-22T03:37:45.807Z,4.37
2018-06-22T03:40:14.258Z,2.50
2018-06-22T03:42:42.895Z,5.25
2018-06-22T03:45:11.327Z,3.80
2018-06-22T03:47:40.083Z,4.40
2018-06-22T03:50:08.533Z,4.40
2018-06-22T03:52:36.974Z,3.92
2018-06-22T03:55:05.414Z,2.98
2018-06-22T03:57:33.873Z,3.77
2018-06-22T04:00:02.312Z,3.72
2018-06-22T04:02:30.768Z,3.20
2018-06-22T04:04:59.216Z,3.83
2018-06-22T04:07:27.641Z,3.65
2018-06-22T04:09:56.072Z,3.00
2018-06-22T04:12:24.528Z,2.52
2018-06-22T04:14:52.963Z,3.08
2018-06-22T04:17:21.416Z,3.70
2018-06-22T04:19:49.875Z,2.75
2018-06-22T04:22:18.295Z,3.62
2018-06-22T04:24:46.723Z,2.87
2018-06-22T04:27:15.185Z,3.27
2018-06-22T04:29:43.602Z,2.60
2018-06-22T04:32:12.033Z,2.20
2018-06-22T04:34:40.498Z,1.95
2018-06-22T04:37:08.966Z,2.95
2018-06-22T04:39:37.384Z,3.45
2018-06-22T04:42:05.846Z,2.45
2018-06-22T04:44:34.271Z,2.17
2018-06-22T04:47:02.713Z,2.22
2018-06-22T04:49:31.175Z,2.67
2018-06-22T04:51:59.608Z,2.35
2018-06-22T04:54:28.047Z,2.40
2018-06-22T04:56:56.523Z,2.65
2018-06-22T04:59:24.980Z,2.90
2018-06-22T05:01:53.510Z,2.45
2018-06-22T05:04:22.040Z,1.77
2018-06-22T05:06:50.482Z,2.00
2018-06-22T05:09:19.019Z,2.17
2018-06-22T05:11:47.471Z,1.45
2018-06-22T05:14:16.104Z,2.12
2018-06-22T05:16:44.531Z,1.75
2018-06-22T05:19:12.991Z,1.80
2018-06-22T05:21:41.437Z,2.15
2018-06-22T05:24:09.886Z,2.15
2018-06-22T05:26:38.504Z,1.75
2018-06-22T05:29:06.948Z,2.58
2018-06-22T05:31:35.395Z,1.62
2018-06-22T05:34:03.879Z,1.87
2018-06-22T05:36:32.351Z,2.63
2018-06-22T05:39:00.780Z,2.67
2018-06-22T05:41:29.266Z,1.62
2018-06-22T05:43:57.745Z,1.87
2018-06-22T05:46:26.186Z,1.70
2018-06-22T05:48:54.796Z,2.20
2018-06-22T05:51:23.240Z,1.23
2018-06-22T05:53:51.718Z,1.77
2018-06-22T05:56:20.187Z,1.30
2018-06-22T05:58:48.641Z,1.37
2018-06-22T06:01:17.080Z,1.43
2018-06-22T06:03:45.535Z,1.30
2018-06-22T06:06:14.050Z,1.53
2018-06-22T06:08:42.510Z,1.20
2018-06-22T06:11:11.056Z,2.40
2018-06-22T06:13:39.673Z,1.43
2018-06-22T06:16:08.517Z,1.20
2018-06-22T06:18:37.097Z,0.90
2018-06-22T06:21:05.566Z,1.33
2018-06-22T06:23:34.025Z,0.90
2018-06-22T06:26:02.509Z,1.00
2018-06-22T06:28:30.952Z,1.40
2018-06-22T06:30:59.525Z,1.63
2018-06-22T06:33:27.993Z,1.20
2018-06-22T06:35:56.440Z,1.10
2018-06-22T06:38:24.904Z,1.17
2018-06-22T06:40:53.414Z,1.27
2018-06-22T06:43:21.860Z,1.33
2018-06-22T06:45:50.634Z,1.50
2018-06-22T06:48:19.141Z,2.27
2018-06-22T06:50:47.577Z,1.20
2018-06-22T06:53:16.037Z,1.27
2018-06-22T06:55:44.510Z,1.87
2018-06-22T06:58:12.956Z,1.10
2018-06-22T07:00:41.410Z,1.93
2018-06-22T07:03:09.880Z,1.47
2018-06-22T07:05:38.325Z,1.37
2018-06-22T07:08:06.851Z,1.37
2018-06-22T07:10:35.322Z,1.10
2018-06-22T07:13:03.809Z,1.60
2018-06-22T07:15:36.591Z,2.63
2018-06-22T07:18:05.121Z,3.90
2018-06-22T07:20:33.557Z,1.97
2018-06-22T07:23:02.035Z,3.13
2018-06-22T07:25:30.579Z,1.80
2018-06-22T07:27:59.227Z,1.73
2018-06-22T07:30:27.717Z,1.03
2018-06-22T07:32:56.365Z,1.73
2018-06-22T07:35:24.815Z,1.60
2018-06-22T07:37:53.343Z,1.27
2018-06-22T07:40:21.828Z,2.57
2018-06-22T07:42:50.302Z,1.40
2018-06-22T07:45:18.766Z,2.30
2018-06-22T07:47:47.257Z,2.00
2018-06-22T07:50:15.691Z,2.27
2018-06-22T07:52:44.157Z,2.07
2018-06-22T07:55:12.660Z,1.67
2018-06-22T07:57:41.091Z,1.80
2018-06-22T08:00:09.573Z,1.70
2018-06-22T08:02:38.069Z,1.43
2018-06-22T08:05:06.867Z,2.60
2018-06-22T08:07:35.375Z,3.40
2018-06-22T08:10:03.879Z,1.83
2018-06-22T08:12:32.502Z,1.57
2018-06-22T08:15:01.088Z,3.33
2018-06-22T08:17:29.586Z,1.77
2018-06-22T08:19:58.008Z,2.17
2018-06-22T08:22:26.510Z,2.87
2018-06-22T08:24:55.481Z,2.10
2018-06-22T08:27:23.951Z,2.67
2018-06-22T08:29:52.469Z,1.70
2018-06-22T08:32:20.927Z,2.70
2018-06-22T08:34:49.450Z,1.80
2018-06-22T08:37:17.917Z,1.70
2018-06-22T08:39:46.379Z,2.17
2018-06-22T08:42:14.858Z,2.40
2018-06-22T08:44:43.336Z,2.30
2018-06-22T08:47:11.828Z,5.60
2018-06-22T08:49:40.271Z,3.83
2018-06-22T08:52:08.784Z,2.33
2018-06-22T08:54:37.369Z,3.73
2018-06-22T08:57:05.844Z,3.97
2018-06-22T08:59:34.315Z,7.47
2018-06-22T09:02:02.771Z,3.73
2018-06-22T09:04:31.240Z,2.33
2018-06-22T09:06:59.703Z,8.10
2018-06-22T09:09:28.188Z,3.30
2018-06-22T09:11:58.254Z,2.83
2018-06-22T09:14:26.783Z,2.60
2018-06-22T09:16:55.262Z,2.40
2018-06-22T09:19:23.699Z,2.20
2018-06-22T09:21:52.177Z,2.23
2018-06-22T09:24:20.631Z,3.37
2018-06-22T09:26:49.074Z,2.00
2018-06-22T09:29:17.553Z,3.10
2018-06-22T09:31:46.037Z,2.43
2018-06-22T09:34:14.513Z,3.27
2018-06-22T09:36:43.008Z,2.40
2018-06-22T09:39:12.202Z,2.70
2018-06-22T09:41:40.829Z,3.23
2018-06-22T09:44:15.320Z,3.90
2018-06-22T09:46:43.774Z,4.47
2018-06-22T09:49:12.221Z,2.67
2018-06-22T09:51:40.674Z,2.60
2018-06-22T09:54:09.107Z,3.10
2018-06-22T09:56:37.677Z,3.03
2018-06-22T09:59:06.201Z,3.90
2018-06-22T10:01:34.695Z,4.67
2018-06-22T10:04:03.137Z,4.50
2018-06-22T10:06:31.607Z,9.33
2018-06-22T10:09:00.047Z,2.90
2018-06-22T10:11:28.571Z,3.83
2018-06-22T10:13:57.188Z,2.23
2018-06-22T10:16:25.627Z,2.40
2018-06-22T10:18:54.137Z,3.40
2018-06-22T10:21:22.624Z,2.57
2018-06-22T10:23:51.069Z,2.60
2018-06-22T10:26:19.558Z,2.87
2018-06-22T10:28:48.016Z,3.33
2018-06-22T10:31:16.471Z,3.90
2018-06-22T10:33:44.936Z,2.50
2018-06-22T10:36:13.512Z,3.53
2018-06-22T10:38:41.983Z,3.33
2018-06-22T10:41:10.488Z,3.57
2018-06-22T10:43:39.039Z,3.00
2018-06-22T10:46:07.712Z,2.30
2018-06-22T10:48:36.185Z,3.60
2018-06-22T10:51:04.965Z,5.30
2018-06-22T10:53:33.422Z,2.73
2018-06-22T10:56:01.896Z,3.50
2018-06-22T10:58:30.390Z,3.57
2018-06-22T11:00:58.903Z,5.13
2018-06-22T11:03:27.388Z,3.77
2018-06-22T11:05:55.870Z,3.17
2018-06-22T11:08:24.372Z,2.90
2018-06-22T11:10:52.854Z,3.70
2018-06-22T11:13:21.315Z,4.17
2018-06-22T11:15:51.826Z,4.97
2018-06-22T11:18:20.379Z,4.77
2018-06-22T11:20:48.845Z,4.90
2018-06-22T11:23:17.318Z,3.90
2018-06-22T11:25:45.786Z,3.90
2018-06-22T11:28:14.363Z,4.23
2018-06-22T11:30:42.869Z,2.97
2018-06-22T11:33:11.328Z,2.40
2018-06-22T11:35:39.854Z,2.17
2018-06-22T11:38:08.311Z,2.40
2018-06-22T11:40:36.798Z,3.20
2018-06-22T11:43:05.308Z,3.70
2018-06-22T11:45:33.769Z,2.67
2018-06-22T11:48:02.301Z,3.20
2018-06-22T11:50:30.830Z,3.43
2018-06-22T11:52:59.278Z,3.40
2018-06-22T11:55:27.930Z,3.43
2018-06-22T11:57:56.508Z,3.60
2018-06-22T12:00:24.961Z,4.90
2018-06-22T12:02:53.405Z,2.27
2018-06-22T12:05:21.884Z,2.30
2018-06-22T12:07:50.369Z,2.17
2018-06-22T12:10:18.841Z,2.87
2018-06-22T12:12:47.359Z,3.53
2018-06-22T12:15:15.856Z,2.67
2018-06-22T12:17:44.344Z,3.27
2018-06-22T12:20:12.814Z,3.13
2018-06-22T12:22:41.280Z,4.00
2018-06-22T12:25:09.748Z,4.53
2018-06-22T12:27:38.249Z,2.67
2018-06-22T12:30:06.731Z,3.50
2018-06-22T12:32:35.169Z,3.20
2018-06-22T12:35:03.675Z,4.10
2018-06-22T12:37:32.138Z,3.97
2018-06-22T12:40:00.569Z,2.63
2018-06-22T12:42:29.093Z,3.23
2018-06-22T12:44:57.617Z,3.30
2018-06-22T12:47:26.209Z,2.50
2018-06-22T12:49:54.662Z,2.83
2018-06-22T12:52:23.116Z,3.50
2018-06-22T12:54:51.591Z,3.33
2018-06-22T12:57:20.072Z,3.20
2018-06-22T12:59:48.533Z,3.27
2018-06-22T13:02:16.957Z,4.70
2018-06-22T13:04:45.460Z,3.87
2018-06-22T13:07:13.924Z,2.80
2018-06-22T13:09:42.368Z,2.50
2018-06-22T13:12:10.857Z,2.97
2018-06-22T13:14:39.329Z,2.77
2018-06-22T13:17:07.851Z,3.40
2018-06-22T13:19:36.394Z,3.77
2018-06-22T13:22:04.872Z,3.70
2018-06-22T13:24:33.341Z,5.50
2018-06-22T13:27:01.809Z,5.53
2018-06-22T13:29:30.262Z,4.00
2018-06-22T13:31:58.708Z,2.60
2018-06-22T13:34:27.167Z,4.07
2018-06-22T13:36:55.668Z,4.47
2018-06-22T13:39:24.113Z,2.63
2018-06-22T13:41:52.609Z,3.30
2018-06-22T13:44:21.076Z,3.90
2018-06-22T13:46:49.542Z,3.90
2018-06-22T13:49:18.017Z,2.97
2018-06-22T13:51:46.505Z,2.80
2018-06-22T13:54:14.979Z,3.90
2018-06-22T13:56:43.528Z,4.13
2018-06-22T13:59:11.989Z,3.40
2018-06-22T14:01:40.437Z,3.60
2018-06-22T14:04:14.227Z,3.73
2018-06-22T14:06:47.946Z,3.43
2018-06-22T14:09:16.444Z,3.23
2018-06-22T14:11:44.940Z,2.63
2018-06-22T14:14:13.422Z,4.70
2018-06-22T14:16:42.284Z,2.87
2018-06-22T14:19:10.825Z,3.10
2018-06-22T14:21:39.314Z,3.10
2018-06-22T14:24:08.582Z,3.50
2018-06-22T14:26:37.179Z,5.63
2018-06-22T14:29:05.925Z,3.60
2018-06-22T14:31:34.445Z,4.10
2018-06-22T14:34:02.901Z,3.73
2018-06-22T14:36:31.432Z,3.50
2018-06-22T14:38:59.962Z,5.43
2018-06-22T14:41:28.413Z,3.57
2018-06-22T14:43:56.870Z,3.57
2018-06-22T14:46:25.351Z,4.40
2018-06-22T14:48:54.269Z,3.20
2018-06-22T14:51:22.713Z,5.67
2018-06-22T14:53:56.329Z,4.33
2018-06-22T14:58:36.156Z,3.20
2018-06-22T15:01:09.909Z,3.37
2018-06-22T15:03:43.510Z,3.17
2018-06-22T15:06:17.226Z,4.40
2018-06-22T15:08:45.697Z,2.40
2018-06-22T15:11:14.206Z,2.73
2018-06-22T15:13:42.707Z,4.63
2018-06-22T15:16:11.149Z,4.00
2018-06-22T15:18:39.651Z,3.37
2018-06-22T15:21:08.185Z,3.33
2018-06-22T15:23:36.642Z,2.90
2018-06-22T15:26:05.130Z,3.97
2018-06-22T15:28:33.610Z,4.87
2018-06-22T15:31:02.153Z,3.00
2018-06-22T15:33:35.839Z,3.77
2018-06-22T15:36:09.680Z,3.50
2018-06-22T15:38:43.574Z,5.50
2018-06-22T15:41:17.296Z,2.87
2018-06-22T15:43:50.973Z,3.30
2018-06-22T15:46:24.544Z,3.50
2018-06-22T15:48:58.390Z,3.03
2018-06-22T15:51:32.235Z,3.27
2018-06-22T15:54:06.133Z,3.50
2018-06-22T15:56:34.711Z,3.63
2018-06-22T15:59:03.159Z,3.43
2018-06-22T16:01:31.651Z,3.03
2018-06-22T16:04:00.740Z,3.60
2018-06-22T16:06:29.682Z,1.80
2018-06-22T16:08:58.182Z,2.43
2018-06-22T16:11:27.264Z,2.57
2018-06-22T16:14:01.479Z,3.40
2018-06-22T16:16:35.295Z,2.97
2018-06-22T16:19:09.220Z,5.43
2018-06-22T16:21:43.022Z,3.53
2018-06-22T16:24:16.726Z,3.73
2018-06-22T16:26:50.392Z,3.07
2018-06-22T16:29:18.870Z,4.03
2018-06-22T16:31:47.366Z,3.13
2018-06-22T16:34:15.831Z,2.97
2018-06-22T16:36:44.306Z,3.50
2018-06-22T16:39:13.777Z,3.33
2018-06-22T16:41:42.227Z,3.03
2018-06-22T16:44:11.298Z,3.63
2018-06-22T16:46:39.772Z,3.20
2018-06-22T16:49:08.265Z,3.83
2018-06-22T16:51:36.789Z,2.33
2018-06-22T16:54:05.409Z,3.83
2018-06-22T16:56:33.870Z,2.80
2018-06-22T16:59:03.316Z,2.67
2018-06-22T17:01:32.060Z,2.40
2018-06-22T17:04:00.516Z,3.53
2018-06-22T17:06:34.255Z,1.90
2018-06-22T17:09:07.842Z,1.97
2018-06-22T17:11:41.592Z,3.37
2018-06-22T17:14:15.468Z,4.47
2018-06-22T17:16:49.320Z,3.00
2018-06-22T17:19:22.498Z,3.67
2018-06-22T17:21:51.250Z,2.67
2018-06-22T17:24:19.760Z,4.30
2018-06-22T17:26:48.244Z,2.70
2018-06-22T17:29:16.779Z,2.93
2018-06-22T17:31:45.264Z,4.43
2018-06-22T17:34:13.780Z,2.40
2018-06-22T17:36:42.387Z,2.90
2018-06-22T17:39:12.023Z,2.10
2018-06-22T17:41:40.581Z,2.80
2018-06-22T17:44:09.159Z,2.80
2018-06-22T17:46:37.684Z,3.20
2018-06-22T17:49:06.210Z,3.27
2018-06-22T17:51:34.718Z,3.50
2018-06-22T17:54:04.126Z,2.90
2018-06-22T17:56:33.292Z,3.60
2018-06-22T17:59:07.187Z,4.00
2018-06-22T18:01:41.074Z,3.13
2018-06-22T18:04:14.924Z,2.70
2018-06-22T18:06:48.776Z,4.80
2018-06-22T18:09:22.377Z,3.97
2018-06-22T18:11:56.047Z,3.63
2018-06-22T18:14:24.540Z,3.00
2018-06-22T18:16:53.232Z,4.00
2018-06-22T18:19:21.703Z,4.13
2018-06-22T18:21:50.204Z,8.40
2018-06-22T18:24:18.698Z,4.40
2018-06-22T18:26:47.160Z,4.60
2018-06-22T18:29:15.685Z,3.63
2018-06-22T18:31:44.185Z,4.70
2018-06-22T18:34:12.652Z,4.40
2018-06-22T18:36:41.218Z,4.73
2018-06-22T18:39:11.266Z,5.43
2018-06-22T18:41:39.756Z,4.90
2018-06-22T18:44:08.308Z,3.77
2018-06-22T18:46:36.791Z,4.40
2018-06-22T18:49:05.271Z,3.97
2018-06-22T18:51:33.776Z,4.60
2018-06-22T18:54:07.507Z,5.60
2018-06-22T18:56:41.324Z,4.83
2018-06-22T18:59:14.990Z,6.43
2018-06-22T19:01:48.834Z,4.77
2018-06-22T19:04:17.321Z,4.83
2018-06-22T19:06:45.836Z,5.23
2018-06-22T19:09:14.607Z,4.40
2018-06-22T19:11:43.108Z,4.40
2018-06-22T19:14:11.614Z,4.23
2018-06-22T19:16:40.912Z,5.73
2018-06-22T19:19:09.922Z,4.03
2018-06-22T19:21:38.520Z,4.70
2018-06-22T19:24:07.081Z,5.23
2018-06-22T19:26:35.620Z,6.87
2018-06-22T19:29:04.163Z,4.63
2018-06-22T19:31:32.658Z,4.87
2018-06-22T19:34:01.149Z,5.50
2018-06-22T19:36:29.621Z,3.70
2018-06-22T19:38:58.116Z,3.00
2018-06-22T19:41:26.602Z,3.83
2018-06-22T19:44:00.508Z,3.87
2018-06-22T19:46:34.160Z,3.87
2018-06-22T19:49:08.018Z,4.60
2018-06-22T19:51:41.834Z,4.83
2018-06-22T19:54:10.332Z,4.60
2018-06-22T19:56:38.822Z,3.63
2018-06-22T19:59:07.326Z,4.37
2018-06-22T20:01:35.803Z,4.00
2018-06-22T20:04:04.492Z,5.47
2018-06-22T20:06:32.951Z,3.70
2018-06-22T20:09:01.473Z,4.93
2018-06-22T20:11:29.892Z,4.00
2018-06-22T20:13:58.374Z,3.67
2018-06-22T20:16:26.977Z,4.67
2018-06-22T20:18:55.447Z,5.40
2018-06-22T20:21:23.888Z,4.43
2018-06-22T20:23:52.367Z,4.30
2018-06-22T20:26:20.873Z,5.93
2018-06-22T20:28:49.498Z,6.17
2018-06-22T20:31:23.226Z,4.50
2018-06-22T20:33:51.736Z,4.70
2018-06-22T20:36:25.451Z,4.40
2018-06-22T20:38:59.289Z,6.20
2018-06-22T20:41:33.178Z,5.90
2018-06-22T20:44:06.811Z,4.97
2018-06-22T20:46:40.679Z,5.27
2018-06-22T20:49:14.552Z,4.63
2018-06-22T20:51:43.947Z,5.20
2018-06-22T20:54:13.191Z,4.77
2018-06-22T20:56:41.782Z,8.18
2018-06-22T20:59:10.383Z,5.97
2018-06-22T21:01:38.893Z,5.33
2018-06-22T21:04:07.464Z,5.50
2018-06-22T21:06:35.990Z,8.28
2018-06-22T21:09:05.834Z,7.28
2018-06-22T21:11:34.310Z,5.77
2018-06-22T21:14:02.851Z,4.70
2018-06-22T21:16:31.350Z,5.37
2018-06-22T21:18:59.848Z,6.10
2018-06-22T21:21:33.605Z,5.17
2018-06-22T21:24:02.278Z,5.70
2018-06-22T21:26:30.765Z,4.50
2018-06-22T21:29:04.545Z,4.60
2018-06-22T21:31:38.348Z,4.87
2018-06-22T21:34:12.203Z,3.77
2018-06-22T21:36:45.899Z,4.40
2018-06-22T21:39:14.698Z,5.00
2018-06-22T21:41:43.205Z,4.83
2018-06-22T21:44:11.665Z,3.17
2018-06-22T21:46:40.194Z,4.50
2018-06-22T21:49:08.677Z,5.07
2018-06-22T21:51:37.178Z,5.00
2018-06-22T21:54:05.827Z,5.73
2018-06-22T21:56:34.297Z,5.40
2018-06-22T21:59:02.790Z,5.93
2018-06-22T22:01:31.371Z,5.45
2018-06-22T22:03:59.844Z,5.85
2018-06-22T22:06:28.358Z,8.25
2018-06-22T22:08:56.859Z,6.62
2018-06-22T22:11:29.560Z,6.40
2018-06-22T22:13:58.111Z,6.60
2018-06-22T22:16:26.580Z,7.80
2018-06-22T22:18:55.040Z,6.70
2018-06-22T22:21:23.618Z,7.40
2018-06-22T22:23:52.014Z,8.75
2018-06-22T22:26:20.494Z,7.90
2018-06-22T22:28:49.046Z,8.55
2018-06-22T22:31:17.543Z,6.75
2018-06-22T22:33:46.000Z,8.03
2018-06-22T22:36:14.553Z,7.00
2018-06-22T22:38:43.012Z,6.80
2018-06-22T22:41:11.491Z,7.72
2018-06-22T22:43:39.954Z,8.35
2018-06-22T22:46:08.427Z,8.03
2018-06-22T22:48:36.868Z,8.50
2018-06-22T22:51:05.465Z,6.80
2018-06-22T22:53:33.903Z,8.33
2018-06-22T22:56:02.375Z,9.50
2018-06-22T22:58:30.872Z,8.15
2018-06-22T23:00:59.330Z,11.18
2018-06-22T23:03:27.782Z,9.40
2018-06-22T23:05:56.300Z,9.90
2018-06-22T23:08:24.785Z,9.48
2018-06-22T23:10:53.257Z,9.30
2018-06-22T23:13:21.732Z,10.90
2018-06-22T23:15:50.260Z,11.30
2018-06-22T23:18:18.723Z,10.53
2018-06-22T23:20:47.230Z,10.15
2018-06-22T23:23:26.661Z,8.65
2018-06-22T23:25:55.140Z,8.63
2018-06-22T23:28:23.625Z,11.05
2018-06-22T23:30:52.199Z,11.78
2018-06-22T23:33:20.876Z,9.38
2018-06-22T23:35:49.337Z,10.03
2018-06-22T23:38:17.823Z,9.68
2018-06-22T23:40:46.379Z,10.93
2018-06-22T23:43:15.012Z,11.10
2018-06-22T23:45:43.578Z,11.50
2018-06-22T23:48:12.507Z,8.83
2018-06-22T23:50:41.147Z,11.08
2018-06-22T23:53:09.719Z,10.15
2018-06-22T23:55:38.317Z,10.88
2018-06-22T23:58:07.061Z,10.82
